Time;durP1;ratioP1;P1;durP2;ratioP2;P2;SDS_P1;SDS_P2;PMS_P1;PMS_P2;Temp;Humidity;BMP_temperature;BMP_pressure;BME280_temperature;BME280_humidity;BME280_pressure;Samples;Min_cycle;Max_cycle;Signal;HPM_P1;HPM_P2
2021/11/09 00:00:56;;;;;;;14.20;10.05;;;3.50;99.90;;;;;;5072515;28;20713;-50
2021/11/09 00:03:21;;;;;;;10.75;8.02;;;3.10;99.90;;;;;;5079004;28;20185;-51
2021/11/09 00:08:20;;;;;;;9.80;8.00;;;3.70;99.90;;;;;;5086841;28;20253;-50
2021/11/09 00:10:46;;;;;;;10.70;7.88;;;3.30;99.90;;;;;;5083028;28;20216;-50
2021/11/09 00:13:13;;;;;;;11.00;8.00;;;2.80;99.90;;;;;;5086168;28;20526;-50
2021/11/09 00:15:39;;;;;;;11.60;7.68;;;3.50;99.90;;;;;;5073814;28;20538;-49
2021/11/09 00:18:04;;;;;;;11.90;7.07;;;3.40;99.90;;;;;;5079636;28;20694;-50
2021/11/09 00:20:33;;;;;;;10.77;7.43;;;3.70;99.90;;;;;;5082887;28;20204;-50
2021/11/09 00:23:00;;;;;;;14.40;7.82;;;3.20;99.90;;;;;;5066906;28;20435;-50
2021/11/09 00:25:26;;;;;;;13.80;7.72;;;3.10;99.90;;;;;;5089639;28;20336;-51
2021/11/09 00:27:52;;;;;;;11.05;7.68;;;3.40;99.90;;;;;;5084964;28;20216;-50
2021/11/09 00:30:20;;;;;;;14.77;8.60;;;3.40;99.90;;;;;;5087418;28;20196;-49
2021/11/09 00:32:46;;;;;;;8.95;7.15;;;3.30;99.90;;;;;;5088714;28;20479;-50
2021/11/09 00:35:14;;;;;;;10.93;7.70;;;3.20;99.90;;;;;;5088605;28;20189;-49
2021/11/09 00:37:42;;;;;;;9.98;7.72;;;3.40;99.90;;;;;;5068868;28;20654;-51
2021/11/09 00:40:09;;;;;;;10.38;8.10;;;3.40;99.90;;;;;;5075240;28;20327;-50
2021/11/09 00:42:35;;;;;;;12.90;8.70;;;3.30;99.90;;;;;;5091267;28;20531;-49
2021/11/09 00:45:03;;;;;;;13.93;8.52;;;3.60;99.90;;;;;;5083912;28;20196;-50
2021/11/09 00:47:29;;;;;;;10.57;7.82;;;3.60;99.90;;;;;;5087260;28;20563;-51
2021/11/09 00:49:54;;;;;;;12.43;7.93;;;3.50;99.90;;;;;;5081489;28;20231;-50
2021/11/09 00:52:20;;;;;;;12.87;8.10;;;3.40;99.90;;;;;;5085797;28;20177;-51
2021/11/09 00:54:46;;;;;;;12.20;8.43;;;3.30;99.90;;;;;;5080113;28;20179;-51
2021/11/09 00:57:12;;;;;;;15.10;9.32;;;3.50;99.90;;;;;;5085519;28;20188;-51
2021/11/09 00:59:37;;;;;;;10.83;7.90;;;3.30;99.90;;;;;;5081211;28;20201;-50
2021/11/09 01:02:04;;;;;;;10.00;8.53;;;3.40;99.90;;;;;;5091868;28;20196;-50
2021/11/09 01:04:30;;;;;;;11.10;8.10;;;3.40;99.90;;;;;;5086146;28;20189;-50
2021/11/09 01:06:56;;;;;;;16.48;9.40;;;3.10;99.90;;;;;;5090989;28;20275;-51
2021/11/09 01:09:22;;;;;;;12.10;8.95;;;3.50;99.90;;;;;;5081247;28;20211;-50
2021/11/09 01:11:50;;;;;;;12.63;9.00;;;3.20;99.90;;;;;;5076475;28;20315;-49
2021/11/09 01:14:16;;;;;;;12.98;8.65;;;3.40;99.90;;;;;;5094323;28;20172;-50
2021/11/09 01:16:42;;;;;;;12.10;8.27;;;2.90;99.90;;;;;;5091578;28;20232;-50
2021/11/09 01:19:08;;;;;;;15.77;8.17;;;3.60;99.90;;;;;;5082151;28;20211;-50
2021/11/09 01:21:36;;;;;;;11.70;9.25;;;3.70;99.90;;;;;;5091156;28;20477;-50
2021/11/09 01:24:02;;;;;;;9.23;8.00;;;3.50;99.90;;;;;;5090282;28;20467;-49
2021/11/09 01:26:28;;;;;;;11.35;8.23;;;3.60;99.90;;;;;;5087745;28;20223;-50
2021/11/09 01:28:58;;;;;;;10.05;8.68;;;3.40;99.90;;;;;;5062300;28;20310;-51
2021/11/09 01:31:24;;;;;;;12.90;7.78;;;3.00;99.90;;;;;;5091762;28;20197;-50
2021/11/09 01:33:51;;;;;;;12.13;8.57;;;3.30;99.90;;;;;;5087673;28;20172;-50
2021/11/09 01:36:17;;;;;;;12.57;8.30;;;3.50;99.90;;;;;;5089075;28;20476;-51
2021/11/09 01:38:43;;;;;;;10.40;8.52;;;3.40;99.90;;;;;;5081243;28;20176;-51
2021/11/09 01:41:09;;;;;;;14.37;10.07;;;3.00;99.90;;;;;;5068308;28;20231;-51
2021/11/09 01:43:37;;;;;;;9.55;8.55;;;3.50;99.90;;;;;;5092262;28;20207;-49
2021/11/09 01:46:05;;;;;;;13.82;9.10;;;3.40;99.90;;;;;;5080916;28;20241;-50
2021/11/09 01:48:32;;;;;;;14.88;8.93;;;3.50;99.90;;;;;;5083569;28;20227;-50
2021/11/09 01:51:02;;;;;;;9.82;7.90;;;3.60;99.90;;;;;;5089683;28;20201;-49
2021/11/09 01:53:29;;;;;;;11.88;8.23;;;3.60;99.90;;;;;;5077221;28;20181;-50
2021/11/09 01:55:57;;;;;;;16.48;9.40;;;3.50;99.90;;;;;;5084905;28;20184;-50
2021/11/09 01:58:24;;;;;;;15.80;9.57;;;3.50;99.90;;;;;;5078955;28;20185;-50
2021/11/09 02:01:01;;;;;;;11.70;8.57;;;3.00;99.90;;;;;;5081968;28;20303;-50
2021/11/09 02:03:27;;;;;;;13.80;8.95;;;3.80;99.90;;;;;;5079780;28;20645;-49
2021/11/09 02:05:54;;;;;;;10.63;8.48;;;3.60;99.90;;;;;;5091237;28;20292;-51
2021/11/09 02:08:21;;;;;;;10.50;9.10;;;3.70;99.90;;;;;;5086703;28;20212;-49
2021/11/09 02:10:48;;;;;;;12.75;8.30;;;3.60;99.90;;;;;;5086582;28;20204;-51
2021/11/09 02:13:16;;;;;;;11.23;8.77;;;3.60;99.90;;;;;;5091408;28;20264;-50
2021/11/09 02:15:42;;;;;;;11.90;8.65;;;3.70;99.90;;;;;;5082832;28;20185;-50
2021/11/09 02:18:10;;;;;;;11.47;7.93;;;3.90;99.90;;;;;;5081584;28;20226;-51
2021/11/09 02:20:37;;;;;;;14.30;8.55;;;4.20;99.90;;;;;;5089036;28;20257;-49
2021/11/09 02:23:05;;;;;;;10.68;8.38;;;3.80;99.90;;;;;;5091263;28;20217;-50
2021/11/09 02:25:33;;;;;;;11.40;8.18;;;3.60;99.90;;;;;;5085067;28;20192;-49
2021/11/09 02:28:01;;;;;;;12.60;8.70;;;3.70;99.90;;;;;;5083454;28;20274;-50
2021/11/09 02:30:28;;;;;;;11.40;8.75;;;3.70;99.90;;;;;;5092063;28;20203;-51
2021/11/09 02:32:55;;;;;;;14.75;9.57;;;4.00;99.90;;;;;;5081652;28;20181;-50
2021/11/09 02:35:22;;;;;;;10.70;8.05;;;3.40;99.90;;;;;;5090267;28;20585;-50
2021/11/09 02:37:49;;;;;;;11.02;8.95;;;4.10;99.90;;;;;;5079115;28;20216;-51
2021/11/09 02:40:15;;;;;;;14.55;8.75;;;4.20;99.90;;;;;;5080582;28;20213;-51
2021/11/09 02:42:47;;;;;;;9.55;7.45;;;3.90;99.90;;;;;;5082662;28;20192;-49
2021/11/09 02:45:26;;;;;;;12.35;9.20;;;4.10;99.90;;;;;;5090947;28;20192;-50
2021/11/09 02:48:16;;;;;;;10.77;7.85;;;3.50;99.90;;;;;;5062299;28;20212;-50
2021/11/09 02:50:46;;;;;;;14.85;8.25;;;3.50;99.90;;;;;;5078351;28;20208;-49
2021/11/09 02:53:29;;;;;;;12.68;7.70;;;4.30;99.90;;;;;;5076329;28;20185;-50
2021/11/09 02:56:03;;;;;;;9.68;7.40;;;4.40;99.90;;;;;;5078300;28;20275;-49
2021/11/09 03:01:07;;;;;;;10.73;7.70;;;4.10;99.90;;;;;;5079778;28;20281;-49
2021/11/09 03:03:42;;;;;;;10.45;8.80;;;4.50;99.90;;;;;;5079707;28;20192;-50
2021/11/09 03:08:48;;;;;;;11.48;8.35;;;3.60;99.90;;;;;;5088103;28;20238;-50
2021/11/09 03:11:14;;;;;;;11.23;7.85;;;4.50;99.90;;;;;;5082109;28;20249;-49
2021/11/09 03:13:43;;;;;;;13.43;8.23;;;4.60;99.90;;;;;;5085583;28;20225;-51
2021/11/09 03:16:11;;;;;;;12.00;8.30;;;4.00;99.90;;;;;;5090110;28;20528;-49
2021/11/09 03:18:43;;;;;;;12.50;8.45;;;4.50;99.90;;;;;;5081652;28;20215;-50
2021/11/09 03:45:30;;;;;;;16.05;9.43;;;3.80;99.90;;;;;;5085338;28;20326;-51
2021/11/09 03:48:04;;;;;;;13.55;9.52;;;4.20;99.90;;;;;;5082594;28;20247;-50
2021/11/09 03:50:31;;;;;;;13.32;9.48;;;3.50;99.90;;;;;;5081577;28;20230;-50
2021/11/09 03:55:38;;;;;;;11.63;8.80;;;4.10;99.90;;;;;;5084206;28;20254;-50
2021/11/09 03:58:16;;;;;;;12.57;10.07;;;4.10;99.90;;;;;;5089187;28;20693;-49
2021/11/09 04:05:45;;;;;;;14.00;9.27;;;3.50;99.90;;;;;;5091155;28;20605;-49
2021/11/09 04:16:13;;;;;;;18.38;11.45;;;4.00;99.90;;;;;;5086162;28;20720;-49
2021/11/09 05:09:34;;;;;;;14.35;8.40;;;3.30;99.90;;;;;;5084534;28;20212;-50
2021/11/09 05:12:00;;;;;;;12.73;10.02;;;3.20;99.90;;;;;;5087621;28;20181;-51
2021/11/09 05:14:26;;;;;;;12.30;8.32;;;3.30;99.90;;;;;;5088519;28;20237;-49
2021/11/09 05:16:52;;;;;;;9.63;8.13;;;3.30;99.90;;;;;;5074667;28;20192;-50
2021/11/09 05:19:18;;;;;;;11.48;9.55;;;3.20;99.90;;;;;;5086600;28;20442;-51
2021/11/09 05:21:43;;;;;;;12.77;8.90;;;3.30;99.90;;;;;;5075619;28;20177;-51
2021/11/09 05:24:10;;;;;;;16.90;8.60;;;3.30;99.90;;;;;;5082851;28;20213;-50
2021/11/09 05:26:37;;;;;;;13.32;9.50;;;3.20;99.90;;;;;;5085004;28;21242;-49
2021/11/09 05:29:04;;;;;;;13.45;8.57;;;3.20;99.90;;;;;;5091351;28;20223;-51
2021/11/09 05:31:30;;;;;;;11.88;8.52;;;3.10;99.90;;;;;;5080077;28;20200;-51
2021/11/09 05:33:57;;;;;;;10.00;8.67;;;3.10;99.90;;;;;;5078517;28;20265;-50
2021/11/09 05:36:31;;;;;;;11.93;8.35;;;3.00;99.90;;;;;;5088327;28;20457;-50
2021/11/09 05:39:12;;;;;;;11.98;9.10;;;3.10;99.90;;;;;;5088492;28;20278;-51
2021/11/09 05:41:39;;;;;;;11.00;8.60;;;3.00;99.90;;;;;;5080876;28;20664;-50
2021/11/09 05:44:06;;;;;;;10.70;8.52;;;3.10;99.90;;;;;;5089540;28;20181;-51
2021/11/09 05:46:34;;;;;;;11.25;8.48;;;3.10;99.90;;;;;;5088575;28;20187;-50
2021/11/09 05:49:00;;;;;;;16.23;9.95;;;3.10;99.90;;;;;;5085484;28;20208;-50
2021/11/09 05:51:25;;;;;;;12.40;8.97;;;2.90;99.90;;;;;;5076071;28;20326;-51
2021/11/09 05:53:51;;;;;;;10.30;8.97;;;2.90;99.90;;;;;;5080274;28;20871;-51
2021/11/09 05:56:17;;;;;;;10.00;8.53;;;2.90;99.90;;;;;;5082551;28;20191;-50
2021/11/09 05:58:43;;;;;;;13.87;8.70;;;2.90;99.90;;;;;;5078523;28;20180;-51
2021/11/09 06:01:09;;;;;;;12.30;9.27;;;2.90;99.90;;;;;;5091744;28;20591;-51
2021/11/09 06:03:35;;;;;;;10.80;8.45;;;2.40;99.90;;;;;;5083429;28;20441;-51
2021/11/09 06:06:01;;;;;;;10.80;9.17;;;3.00;99.90;;;;;;5082928;28;20177;-51
2021/11/09 06:08:26;;;;;;;16.17;10.50;;;2.90;99.90;;;;;;5066239;28;20206;-50
2021/11/09 06:10:52;;;;;;;12.97;9.43;;;2.80;99.90;;;;;;5087884;28;20598;-49
2021/11/09 06:13:18;;;;;;;11.10;8.80;;;2.60;99.90;;;;;;5087847;28;20181;-50
2021/11/09 06:15:43;;;;;;;13.63;8.77;;;2.40;99.90;;;;;;5087532;28;20242;-51
2021/11/09 06:18:09;;;;;;;11.03;9.40;;;2.40;99.90;;;;;;5080498;28;20243;-51
2021/11/09 06:20:35;;;;;;;12.20;9.10;;;3.10;99.90;;;;;;5089144;28;20208;-52
2021/11/09 06:23:01;;;;;;;13.60;10.60;;;2.90;99.90;;;;;;5090337;28;20595;-50
2021/11/09 06:25:27;;;;;;;11.23;9.40;;;2.80;99.90;;;;;;5088117;28;20186;-50
2021/11/09 06:27:53;;;;;;;13.50;10.00;;;2.80;99.90;;;;;;5084782;28;20752;-50
2021/11/09 06:30:21;;;;;;;13.05;9.35;;;2.50;99.90;;;;;;5083758;28;20462;-50
2021/11/09 06:32:47;;;;;;;10.93;7.88;;;2.50;99.90;;;;;;5072617;28;20187;-50
2021/11/09 06:35:13;;;;;;;16.52;9.55;;;2.80;99.90;;;;;;5084896;28;20189;-50
2021/11/09 06:37:39;;;;;;;14.15;8.95;;;3.00;99.90;;;;;;5071987;28;20610;-50
2021/11/09 06:40:06;;;;;;;13.63;9.33;;;2.70;99.90;;;;;;5078454;28;20715;-50
2021/11/09 06:42:33;;;;;;;16.35;8.82;;;2.80;99.90;;;;;;5087891;28;20208;-50
2021/11/09 06:44:59;;;;;;;11.07;9.00;;;2.90;99.90;;;;;;5075621;28;20204;-52
2021/11/09 06:47:25;;;;;;;11.17;9.67;;;2.80;99.90;;;;;;5086994;28;20245;-53
2021/11/09 06:49:51;;;;;;;12.73;8.77;;;3.40;99.90;;;;;;5082680;28;20220;-53
2021/11/09 06:52:17;;;;;;;10.70;9.03;;;3.10;99.90;;;;;;5082538;28;20431;-54
2021/11/09 06:54:44;;;;;;;12.15;9.15;;;3.30;99.90;;;;;;5086969;28;20434;-54
2021/11/09 06:57:10;;;;;;;12.45;9.00;;;2.90;99.90;;;;;;5077893;28;20183;-54
2021/11/09 06:59:36;;;;;;;15.88;9.60;;;3.00;99.90;;;;;;5083140;28;20210;-55
2021/11/09 07:02:03;;;;;;;11.67;9.23;;;3.00;99.90;;;;;;5080149;28;20192;-51
2021/11/09 07:04:29;;;;;;;15.20;9.65;;;3.20;99.90;;;;;;5085022;28;20430;-51
2021/11/09 07:06:55;;;;;;;11.70;8.82;;;2.90;99.90;;;;;;5074019;28;20595;-50
2021/11/09 07:09:22;;;;;;;9.85;8.25;;;2.80;99.90;;;;;;5074714;28;20212;-50
2021/11/09 07:11:48;;;;;;;15.60;9.95;;;2.90;99.90;;;;;;5081700;28;20184;-50
2021/11/09 07:14:14;;;;;;;10.83;7.77;;;3.10;99.90;;;;;;5073362;28;20180;-50
2021/11/09 07:16:42;;;;;;;13.67;8.80;;;3.00;99.90;;;;;;5076988;28;20497;-50
2021/11/09 07:19:09;;;;;;;12.65;8.45;;;3.20;99.90;;;;;;5075292;28;20451;-49
2021/11/09 07:21:34;;;;;;;12.52;8.98;;;3.20;99.90;;;;;;5074014;28;20234;-50
2021/11/09 07:24:00;;;;;;;11.03;8.80;;;2.80;99.90;;;;;;5073236;28;20667;-52
2021/11/09 07:26:27;;;;;;;14.20;8.47;;;2.70;99.90;;;;;;5077410;28;20431;-52
2021/11/09 07:28:53;;;;;;;13.43;9.88;;;3.30;99.90;;;;;;5083716;28;20231;-51
2021/11/09 07:31:19;;;;;;;12.43;9.70;;;3.20;99.90;;;;;;5084737;28;20711;-50
2021/11/09 07:33:45;;;;;;;16.00;11.25;;;3.00;99.90;;;;;;5090253;28;20653;-50
2021/11/09 07:36:12;;;;;;;12.52;9.65;;;2.90;99.90;;;;;;5086803;28;20203;-51
2021/11/09 07:38:37;;;;;;;13.07;10.57;;;3.10;99.90;;;;;;5100552;28;20697;-51
2021/11/09 07:41:03;;;;;;;14.77;10.10;;;3.00;99.90;;;;;;5087677;28;20303;-52
2021/11/09 07:43:29;;;;;;;17.63;9.37;;;3.40;99.90;;;;;;5073271;28;20220;-50
2021/11/09 07:45:54;;;;;;;12.40;10.17;;;3.20;99.90;;;;;;5082357;28;20184;-49
2021/11/09 07:48:20;;;;;;;12.90;9.07;;;3.40;99.90;;;;;;5087221;28;20323;-51
2021/11/09 07:50:46;;;;;;;10.20;8.93;;;3.30;99.90;;;;;;5093105;28;20196;-51
2021/11/09 07:53:15;;;;;;;13.37;9.57;;;3.50;99.90;;;;;;5091898;28;20546;-51
2021/11/09 07:55:49;;;;;;;14.60;10.05;;;3.20;99.90;;;;;;5099026;28;20192;-50
2021/11/09 07:59:10;;;;;;;13.38;9.63;;;3.40;99.90;;;;;;5078129;28;20238;-50
2021/11/09 08:01:08;;;;;;;12.98;8.88;;;3.50;99.90;;;;;;5082228;28;20315;-50
2021/11/09 08:11:20;;;;;;;13.13;9.00;;;4.20;99.90;;;;;;5083805;28;20204;-51
2021/11/09 08:13:46;;;;;;;13.77;10.27;;;4.00;99.90;;;;;;5075608;28;20170;-51
2021/11/09 08:16:12;;;;;;;11.57;8.50;;;4.40;99.90;;;;;;5084993;28;20180;-52
2021/11/09 08:18:37;;;;;;;11.30;9.47;;;4.60;99.90;;;;;;5089695;28;20625;-50
2021/11/09 08:21:05;;;;;;;14.20;9.67;;;5.10;99.90;;;;;;5079319;28;20240;-51
2021/11/09 08:23:32;;;;;;;13.18;9.90;;;4.70;99.90;;;;;;5086064;28;20551;-50
2021/11/09 08:25:57;;;;;;;14.38;9.88;;;4.90;99.90;;;;;;5079161;28;20187;-50
2021/11/09 08:28:23;;;;;;;13.80;9.43;;;5.00;99.90;;;;;;5088421;28;20217;-51
2021/11/09 08:30:52;;;;;;;13.77;8.97;;;5.10;99.90;;;;;;5090978;28;20295;-51
2021/11/09 08:33:20;;;;;;;11.93;9.85;;;5.50;99.90;;;;;;5088368;28;20482;-51
2021/11/09 08:35:46;;;;;;;11.68;9.27;;;5.40;99.90;;;;;;5090825;28;20646;-52
2021/11/09 08:38:12;;;;;;;12.55;9.57;;;5.60;99.90;;;;;;5084765;28;20602;-51
2021/11/09 08:40:39;;;;;;;14.57;9.70;;;5.60;99.90;;;;;;5083039;28;20213;-52
2021/11/09 08:43:05;;;;;;;13.75;9.80;;;5.90;99.90;;;;;;5082183;28;20183;-50
2021/11/09 08:48:06;;;;;;;13.50;9.35;;;6.20;99.90;;;;;;5083408;28;20733;-52
2021/11/09 08:50:32;;;;;;;13.30;9.10;;;6.60;99.90;;;;;;5089963;28;20660;-53
2021/11/09 08:53:03;;;;;;;13.05;9.65;;;7.30;99.90;;;;;;5087360;28;20241;-50
2021/11/09 09:01:14;;;;;;;13.95;8.48;;;8.20;99.90;;;;;;5076493;28;20207;-50
2021/11/09 09:06:30;;;;;;;13.85;9.02;;;9.10;99.90;;;;;;5086847;28;20183;-49
2021/11/09 09:08:58;;;;;;;13.85;8.00;;;10.10;99.90;;;;;;5058333;28;20290;-50
2021/11/09 09:11:24;;;;;;;12.55;8.18;;;10.80;98.40;;;;;;5083364;28;20593;-50
2021/11/09 09:13:50;;;;;;;11.38;9.18;;;11.00;96.80;;;;;;5086839;28;20666;-49
2021/11/09 09:16:16;;;;;;;11.77;9.05;;;10.90;96.10;;;;;;5088612;28;20177;-49
2021/11/09 09:18:43;;;;;;;9.80;8.77;;;10.80;96.10;;;;;;5082290;28;20246;-50
2021/11/09 09:21:20;;;;;;;11.02;9.35;;;10.00;96.70;;;;;;5092507;28;20280;-49
2021/11/09 09:23:51;;;;;;;11.98;8.93;;;10.30;97.20;;;;;;5093294;28;20164;-50
2021/11/09 09:56:06;;;;;;;10.90;8.95;;;10.40;95.40;;;;;;5090557;28;20547;-52
2021/11/09 09:58:31;;;;;;;9.90;8.00;;;10.40;95.10;;;;;;5077954;28;20198;-50
2021/11/09 10:00:58;;;;;;;15.10;9.63;;;10.40;94.90;;;;;;5076714;28;20307;-51
2021/11/09 10:03:36;;;;;;;10.82;7.70;;;10.40;94.70;;;;;;5080183;28;20184;-48
2021/11/09 10:06:04;;;;;;;9.63;8.52;;;10.50;95.60;;;;;;5092323;28;20466;-49
2021/11/09 10:08:51;;;;;;;11.52;7.95;;;10.40;95.50;;;;;;5087079;28;20199;-50
2021/11/09 10:11:31;;;;;;;8.85;7.03;;;10.70;95.10;;;;;;5089082;28;20813;-50
2021/11/09 10:13:57;;;;;;;8.50;6.78;;;11.10;93.80;;;;;;5070832;28;20557;-50
2021/11/09 10:16:23;;;;;;;6.57;5.43;;;11.10;93.20;;;;;;5084589;28;20185;-48
2021/11/09 10:18:49;;;;;;;9.37;6.53;;;11.00;93.80;;;;;;5094216;28;20275;-50
2021/11/09 10:21:14;;;;;;;7.87;5.40;;;10.70;93.90;;;;;;5097057;28;20232;-51
2021/11/09 10:23:41;;;;;;;10.83;6.10;;;11.30;93.60;;;;;;5084947;28;20438;-49
2021/11/09 10:26:13;;;;;;;5.43;4.50;;;11.00;93.90;;;;;;5086876;28;20189;-51
2021/11/09 10:28:38;;;;;;;4.82;3.90;;;11.70;92.30;;;;;;5093198;28;20200;-51
2021/11/09 10:31:07;;;;;;;4.80;4.27;;;12.80;90.90;;;;;;5083394;28;20711;-51
2021/11/09 10:33:39;;;;;;;7.30;4.55;;;13.50;87.80;;;;;;5068040;28;20508;-48
2021/11/09 10:36:24;;;;;;;7.13;4.32;;;14.30;85.40;;;;;;5077098;28;20180;-49
2021/11/09 10:38:50;;;;;;;6.28;3.92;;;15.90;80.80;;;;;;5078264;28;20188;-50
2021/11/09 10:41:16;;;;;;;5.15;3.55;;;16.70;75.00;;;;;;5084985;28;20207;-50
2021/11/09 10:43:46;;;;;;;5.60;4.18;;;17.20;73.10;;;;;;5079614;28;20641;-52
2021/11/09 10:46:28;;;;;;;5.70;4.78;;;16.10;72.00;;;;;;5086320;28;20194;-49
2021/11/09 10:48:54;;;;;;;5.40;4.47;;;15.30;75.30;;;;;;5075650;28;20315;-50
2021/11/09 10:51:20;;;;;;;8.37;4.17;;;15.40;75.60;;;;;;5082404;28;20768;-50
2021/11/09 10:54:04;;;;;;;10.02;4.32;;;15.30;77.50;;;;;;5084694;28;20437;-50
2021/11/09 10:56:50;;;;;;;4.95;4.28;;;15.30;74.50;;;;;;5076829;28;20207;-50
2021/11/09 10:59:25;;;;;;;6.53;3.85;;;15.50;76.00;;;;;;5076161;28;20185;-50
2021/11/09 11:04:44;;;;;;;3.80;3.50;;;15.50;75.80;;;;;;5076403;28;20691;-52
2021/11/09 11:07:12;;;;;;;5.33;4.40;;;15.20;76.50;;;;;;5078077;28;20192;-51
2021/11/09 11:09:42;;;;;;;6.63;3.80;;;15.50;77.40;;;;;;5076421;28;20219;-52
2021/11/09 11:12:14;;;;;;;4.78;3.80;;;15.00;76.20;;;;;;5074110;28;20227;-50
2021/11/09 11:14:41;;;;;;;5.70;4.03;;;14.80;77.70;;;;;;5071315;28;20181;-49
2021/11/09 11:17:12;;;;;;;7.78;3.72;;;14.70;77.80;;;;;;5080028;28;20187;-51
2021/11/09 11:19:43;;;;;;;5.28;4.15;;;14.50;76.30;;;;;;5085657;28;20223;-49
2021/11/09 11:22:20;;;;;;;5.95;4.15;;;14.80;77.00;;;;;;5077769;28;20196;-50
2021/11/09 11:24:53;;;;;;;9.60;5.75;;;14.40;78.30;;;;;;5075969;28;20245;-50
2021/11/09 11:27:20;;;;;;;5.35;4.55;;;13.60;79.30;;;;;;5081856;28;20654;-50
2021/11/09 11:29:47;;;;;;;4.30;3.45;;;13.70;80.80;;;;;;5076709;28;20296;-50
2021/11/09 11:32:17;;;;;;;4.95;3.80;;;13.10;81.30;;;;;;5088777;28;20191;-51
2021/11/09 11:34:43;;;;;;;8.88;4.28;;;13.40;82.50;;;;;;5078932;28;20732;-50
2021/11/09 11:37:10;;;;;;;5.97;4.55;;;12.60;82.90;;;;;;5073086;28;20262;-49
2021/11/09 11:39:37;;;;;;;6.10;3.88;;;12.30;84.00;;;;;;5073912;28;20291;-50
2021/11/09 11:42:08;;;;;;;5.25;4.15;;;12.50;83.80;;;;;;5084338;28;20185;-50
2021/11/09 11:44:37;;;;;;;5.65;3.85;;;12.40;84.40;;;;;;5081391;28;20186;-49
2021/11/09 11:47:17;;;;;;;6.18;4.32;;;12.10;85.60;;;;;;5088704;28;20702;-50
2021/11/09 11:49:54;;;;;;;5.38;4.30;;;12.30;84.90;;;;;;5080361;28;20225;-50
2021/11/09 11:52:27;;;;;;;6.07;4.40;;;12.30;85.90;;;;;;5086053;28;20188;-49
2021/11/09 11:54:54;;;;;;;11.05;4.50;;;12.30;86.60;;;;;;5076910;28;20176;-50
2021/11/09 11:57:29;;;;;;;8.55;4.75;;;12.00;87.70;;;;;;5077805;28;20186;-49
2021/11/09 11:59:56;;;;;;;5.97;4.20;;;12.00;87.80;;;;;;5082251;28;20271;-50
2021/11/09 12:02:38;;;;;;;7.03;4.22;;;12.00;87.70;;;;;;5080949;28;20201;-49
2021/11/09 12:05:07;;;;;;;3.28;2.97;;;11.80;86.40;;;;;;5075671;28;20232;-49
2021/11/09 12:07:54;;;;;;;5.68;3.50;;;12.00;84.80;;;;;;5086840;28;20230;-49
2021/11/09 12:10:21;;;;;;;9.35;6.00;;;12.10;85.90;;;;;;5080372;28;20206;-49
2021/11/09 12:13:14;;;;;;;6.20;4.05;;;12.20;85.10;;;;;;5076554;28;20184;-49
2021/11/09 12:15:52;;;;;;;3.58;2.83;;;12.20;83.10;;;;;;5075969;28;20210;-50
2021/11/09 12:18:35;;;;;;;7.35;3.00;;;12.30;83.10;;;;;;5078923;28;20193;-52
2021/11/09 12:21:09;;;;;;;8.77;3.22;;;12.30;83.90;;;;;;5085286;28;20689;-51
2021/11/09 12:23:36;;;;;;;3.65;2.63;;;12.20;81.60;;;;;;5078500;28;20188;-51
2021/11/09 12:26:03;;;;;;;3.80;3.00;;;12.30;83.30;;;;;;5084244;28;20186;-51
2021/11/09 12:28:37;;;;;;;5.07;2.75;;;12.30;81.30;;;;;;5080204;28;20202;-50
2021/11/09 12:31:16;;;;;;;5.75;3.03;;;12.40;82.10;;;;;;5084466;28;20205;-50
2021/11/09 12:33:50;;;;;;;2.78;2.45;;;12.30;82.10;;;;;;5065335;28;20198;-51
2021/11/09 12:36:22;;;;;;;3.38;3.00;;;12.40;80.80;;;;;;5077207;28;20225;-51
2021/11/09 12:38:51;;;;;;;4.28;3.00;;;12.70;81.40;;;;;;5080334;28;20183;-50
2021/11/09 12:41:20;;;;;;;5.13;3.47;;;12.40;80.70;;;;;;5081197;28;20211;-51
2021/11/09 12:43:54;;;;;;;5.07;3.00;;;12.40;80.30;;;;;;5088345;28;20613;-51
2021/11/09 12:46:44;;;;;;;3.75;2.70;;;12.50;80.40;;;;;;5087933;28;20219;-51
2021/11/09 12:49:21;;;;;;;3.42;2.47;;;12.30;80.00;;;;;;5081591;28;20232;-51
2021/11/09 12:51:54;;;;;;;4.85;2.63;;;12.30;81.30;;;;;;5086105;28;20324;-51
2021/11/09 12:54:29;;;;;;;3.85;2.70;;;12.30;80.70;;;;;;5083324;28;20208;-51
2021/11/09 12:57:01;;;;;;;7.13;3.03;;;12.00;80.50;;;;;;5076395;28;20607;-52
2021/11/09 13:04:30;;;;;;;3.67;2.65;;;12.10;81.40;;;;;;5080387;28;20269;-51
2021/11/09 13:09:44;;;;;;;4.97;3.10;;;12.10;81.50;;;;;;5090504;28;20287;-50
2021/11/09 13:12:15;;;;;;;4.93;3.00;;;12.00;81.80;;;;;;5081553;28;20655;-50
2021/11/09 13:14:48;;;;;;;2.58;2.38;;;12.00;81.00;;;;;;5081307;28;20507;-50
2021/11/09 13:17:23;;;;;;;5.43;2.90;;;12.20;83.50;;;;;;5064452;28;20182;-51
2021/11/09 13:22:58;;;;;;;4.43;3.10;;;12.10;81.90;;;;;;5058856;28;20276;-51
2021/11/09 13:25:30;;;;;;;3.78;2.85;;;12.30;82.70;;;;;;5075130;28;20252;-50
2021/11/09 13:27:56;;;;;;;3.15;2.85;;;12.20;81.30;;;;;;5083772;28;20673;-51
2021/11/09 13:30:25;;;;;;;3.00;2.43;;;12.10;80.60;;;;;;5085621;28;20255;-49
2021/11/09 13:32:57;;;;;;;4.68;3.35;;;12.00;80.60;;;;;;5085960;28;20954;-47
2021/11/09 13:35:25;;;;;;;3.78;3.05;;;11.90;81.10;;;;;;5078540;28;20184;-50
2021/11/09 13:38:06;;;;;;;3.35;2.95;;;12.10;81.70;;;;;;5079982;28;20198;-49
2021/11/09 13:40:32;;;;;;;4.30;3.00;;;12.20;81.70;;;;;;5086350;28;20278;-48
2021/11/09 13:43:00;;;;;;;3.58;3.28;;;12.10;81.70;;;;;;5082130;28;20192;-50
2021/11/09 13:45:26;;;;;;;7.07;3.05;;;12.30;81.10;;;;;;5078408;28;20204;-49
2021/11/09 13:47:53;;;;;;;6.68;2.97;;;12.00;80.60;;;;;;5080760;28;20197;-50
2021/11/09 13:50:18;;;;;;;3.10;2.60;;;12.00;81.30;;;;;;5079346;28;20201;-51
2021/11/09 13:52:50;;;;;;;6.83;2.80;;;11.70;81.70;;;;;;5081133;28;20192;-51
2021/11/09 13:55:18;;;;;;;4.28;2.60;;;11.80;81.10;;;;;;5061301;28;20447;-51
2021/11/09 13:57:45;;;;;;;7.05;2.85;;;11.70;81.30;;;;;;5064175;28;20653;-51
2021/11/09 14:00:17;;;;;;;4.55;2.70;;;11.80;81.70;;;;;;5074744;28;20219;-49
2021/11/09 14:02:51;;;;;;;3.25;2.47;;;11.70;81.20;;;;;;5075439;28;20185;-50
2021/11/09 14:09:18;;;;;;;4.22;2.85;;;11.40;81.30;;;;;;4980116;28;20294;-50
2021/11/09 14:11:51;;;;;;;4.43;2.80;;;11.50;81.80;;;;;;5070292;28;20259;-50
2021/11/09 14:14:30;;;;;;;8.70;3.42;;;11.50;82.20;;;;;;5074288;28;20181;-51
2021/11/09 14:16:57;;;;;;;4.38;2.70;;;11.40;81.80;;;;;;5073803;28;20230;-49
2021/11/09 14:19:36;;;;;;;3.92;3.35;;;11.60;82.30;;;;;;5088998;28;20195;-49
2021/11/09 14:22:18;;;;;;;2.95;2.50;;;11.70;83.10;;;;;;5074171;28;20752;-49
2021/11/09 14:25:05;;;;;;;4.47;2.42;;;11.30;82.80;;;;;;5078511;28;20184;-49
2021/11/09 14:27:36;;;;;;;3.60;2.78;;;11.50;82.40;;;;;;5081242;28;20275;-49
2021/11/09 14:30:07;;;;;;;2.80;2.50;;;11.60;82.30;;;;;;5080913;28;20211;-49
2021/11/09 14:32:36;;;;;;;4.75;3.00;;;11.30;82.60;;;;;;5072360;28;20599;-49
2021/11/09 14:40:34;;;;;;;3.58;2.10;;;11.40;83.30;;;;;;5077219;28;20694;-49
2021/11/09 14:43:21;;;;;;;5.65;2.80;;;11.40;83.40;;;;;;5087036;28;20298;-51
2021/11/09 14:48:36;;;;;;;3.10;2.80;;;11.30;84.00;;;;;;5078663;28;20197;-51
2021/11/09 14:51:14;;;;;;;3.63;2.13;;;11.50;84.00;;;;;;5078582;28;20682;-53
2021/11/09 14:53:57;;;;;;;5.78;2.28;;;11.20;84.10;;;;;;5076672;28;20572;-50
2021/11/09 14:56:31;;;;;;;3.65;2.50;;;11.20;84.20;;;;;;5079802;28;20184;-50
2021/11/09 14:59:00;;;;;;;3.38;2.75;;;11.20;84.90;;;;;;5100623;28;20554;-48
2021/11/09 15:01:39;;;;;;;5.45;3.10;;;11.40;86.40;;;;;;5096438;28;20264;-49
2021/11/09 15:04:20;;;;;;;3.78;2.60;;;11.40;87.00;;;;;;5072031;28;20176;-49
2021/11/09 15:07:02;;;;;;;5.10;2.55;;;11.10;86.90;;;;;;5086120;28;20557;-51
2021/11/09 15:26:19;;;;;;;3.90;2.33;;;10.80;88.10;;;;;;5076222;28;20546;-50
2021/11/09 15:28:52;;;;;;;3.05;2.20;;;10.70;88.30;;;;;;5076326;28;20211;-49
2021/11/09 15:36:43;;;;;;;2.83;2.60;;;10.60;89.10;;;;;;5092818;28;20264;-49
2021/11/09 15:39:12;;;;;;;5.13;2.45;;;10.40;89.20;;;;;;5081571;28;20274;-48
2021/11/09 15:41:37;;;;;;;3.67;2.50;;;10.50;90.10;;;;;;5077422;28;20183;-48
2021/11/09 15:44:04;;;;;;;3.83;2.40;;;10.50;90.30;;;;;;5071807;28;20188;-47
2021/11/09 15:46:29;;;;;;;5.22;3.08;;;10.60;90.20;;;;;;5077339;28;20459;-50
2021/11/09 15:48:55;;;;;;;3.40;2.90;;;10.40;91.60;;;;;;5086181;28;20192;-48
2021/11/09 15:51:21;;;;;;;4.93;2.80;;;10.30;91.70;;;;;;5083919;28;20250;-49
2021/11/09 15:53:48;;;;;;;4.90;3.40;;;10.20;92.30;;;;;;5079271;28;20185;-49
2021/11/09 15:56:15;;;;;;;5.40;3.15;;;10.00;92.40;;;;;;5079973;28;20184;-49
2021/11/09 15:58:41;;;;;;;4.20;2.78;;;10.00;92.70;;;;;;5092069;28;20180;-49
2021/11/09 16:01:07;;;;;;;4.45;2.75;;;10.00;92.80;;;;;;5095540;28;20220;-48
2021/11/09 16:03:36;;;;;;;3.00;2.70;;;9.90;93.50;;;;;;5085163;28;20298;-49
2021/11/09 16:06:03;;;;;;;3.97;2.60;;;9.50;93.70;;;;;;5096316;28;20645;-47
2021/11/09 16:08:32;;;;;;;5.63;3.28;;;9.50;93.40;;;;;;5086445;28;20545;-49
2021/11/09 16:11:01;;;;;;;5.57;3.40;;;9.60;94.00;;;;;;5079161;28;20200;-49